Golden Iris — 3FZK4 — position and weather

sailwx.info

Track history (hours):
 
Tides and Currents Weather Stations Pressure Air Temp Water Temp Dewpoint Dewpoint Depression Visibility Wind Speed Wind Dir Waves Ship Positions

Golden Iris

Last reported at 2018-May-27 10:14 UTC. Time now 2018-May-28 07:38 UTC.
Position N 32°55' E 034°48'.

Length 164 m; draft 6 m.

Type: Passenger vessel. MMSI: 371771000.

Date/timePositionNaut miles runAvg speedWind from/ knotsBaromVisibWave heightAir tempDewpointWater temp
2018-May-27 10:14N 32°55' E 034°48'415.6
2018-May-27 10:00N 32°54' E 034°52'814.8
2018-May-27 09:30N 32°51' E 035°00'1 0.1
2018-May-27 02:33N 32°50' E 035°01'1 4.9
2018-May-27 02:17N 32°51' E 034°60'2 7.8
2018-May-27 01:59N 32°52' E 034°57'4 7.8
2018-May-27 01:25N 32°54' E 034°52'4 9.8
2018-May-27 01:00N 32°54' E 034°47'134 3.9
2018-May-25 14:26N 34°56' E 033°38'0 0.0
2018-May-25 13:59N 34°56' E 033°38'0 0.0
2018-May-25 13:29N 34°56' E 033°38'0 0.0
2018-May-25 12:56N 34°56' E 033°38'0 0.0
2018-May-25 12:26N 34°56' E 033°38'0 0.0
2018-May-25 11:59N 34°56' E 033°38'0 0.0
2018-May-25 11:23N 34°56' E 033°38'0 0.0
2018-May-25 10:56N 34°56' E 033°38'0 0.0
2018-May-25 10:29N 34°56' E 033°38'72 8.1
2018-May-25 01:38N 33°44' E 033°47'1 9.7
2018-May-25 01:30N 33°43' E 033°47'5 9.5
2018-May-25 01:00N 33°38' E 033°46'5 9.5
2018-May-25 00:30N 33°33' E 033°46'5 9.5
2018-May-24 23:57N 33°28' E 033°45'4 9.6
2018-May-24 23:30N 33°24' E 033°44'5 9.5
2018-May-24 23:00N 33°19' E 033°44'5 9.3
2018-May-24 22:30N 33°15' E 033°43'5 9.3
2018-May-24 22:00N 33°10' E 033°42'4 8.2
2018-May-24 21:30N 33°07' E 033°46'5 9.7
2018-May-24 21:00N 33°06' E 033°51'5 9.8
2018-May-24 20:30N 33°05' E 033°57'6 9.7
2018-May-24 19:54N 33°03' E 034°04'5 9.6
2018-May-24 19:22N 33°02' E 034°10'3 9.5
2018-May-24 19:00N 33°02' E 034°14'5 9.4
2018-May-24 18:30N 33°01' E 034°19'5 9.6
2018-May-24 18:00N 32°60' E 034°25'5 9.6
2018-May-24 17:30N 32°59' E 034°31'5 9.7
2018-May-24 17:00N 32°58' E 034°36'5 9.5
2018-May-24 16:29N 32°58' E 034°42'4 9.2
2018-May-24 16:00N 32°57' E 034°47'4 9.0
2018-May-24 15:30N 32°55' E 034°52'4 9.0
2018-May-24 15:00N 32°53' E 034°57'4 0.4
2018-May-24 03:59N 32°51' E 035°01'3 5.8
2018-May-24 03:30N 32°52' E 034°58'610.8
2018-May-24 02:59N 32°54' E 034°52'510.7
2018-May-24 02:30N 32°55' E 034°46'17 0.5
2018-May-22 13:49N 32°57' E 034°26'3 9.1
2018-May-22 13:29N 32°56' E 034°29'4 9.1
2018-May-22 13:00N 32°55' E 034°34'5 9.2
2018-May-22 12:30N 32°54' E 034°40'5 9.3
2018-May-22 12:00N 32°53' E 034°45'5 9.3
2018-May-22 11:30N 32°53' E 034°51'5 9.1
2018-May-22 11:00N 32°53' E 034°56'5 0.5
2018-May-22 01:55N 32°51' E 035°01'4 9.2
2018-May-22 01:30N 32°52' E 034°57'815.7
2018-May-22 01:00N 32°53' E 034°48'714.7
2018-May-22 00:30N 32°53' E 034°39'815.9
2018-May-22 00:00N 32°55' E 034°30'816.1
2018-May-21 23:30N 32°56' E 034°20'816.3
2018-May-21 23:00N 32°58' E 034°11'816.1
2018-May-21 22:30N 33°00' E 034°01'816.1
2018-May-21 22:00N 33°04' E 033°53'815.7
2018-May-21 21:30N 33°09' E 033°46'612.4
2018-May-21 21:00N 33°13' E 033°40'1312.6
2018-May-21 19:58N 33°21' E 033°28'1212.7
2018-May-21 19:01N 33°29' E 033°16'012.7
2018-May-21 18:59N 33°29' E 033°16'613.0
2018-May-21 18:30N 33°33' E 033°10'713.2
2018-May-21 18:00N 33°37' E 033°04'  
2018-May-18 20:55N 33°47' E 033°51'2310.1
2018-May-18 18:37N 33°24' E 033°54'1 9.7
2018-May-18 18:30N 33°23' E 033°54'13 9.6
2018-May-18 17:06N 33°10' E 033°56'1 9.6
2018-May-18 17:00N 33°09' E 033°56'34 8.6
2018-May-18 13:00N 32°56' E 034°34'4 9.2
2018-May-18 12:30N 32°55' E 034°39'6 9.1
2018-May-18 11:52N 32°54' E 034°46'3 9.5
2018-May-18 11:30N 32°53' E 034°50'9 1.0
2018-May-18 02:21N 32°51' E 035°00'4 8.5
2018-May-18 01:56N 32°52' E 034°56'510.5
2018-May-18 01:29N 32°53' E 034°51'510.9
2018-May-18 01:00N 32°55' E 034°45'510.8
2018-May-18 00:30N 32°56' E 034°38'511.0
2018-May-18 00:00N 32°56' E 034°32'611.2
2018-May-17 23:30N 32°57' E 034°25'611.5
2018-May-17 23:01N 32°59' E 034°19'611.6
2018-May-17 22:30N 32°60' E 034°12'611.7
2018-May-17 22:00N 33°01' E 034°05'611.7
2018-May-17 21:30N 33°02' E 033°58'611.8
2018-May-17 21:00N 33°04' E 033°51'611.7
2018-May-17 20:30N 33°06' E 033°45'611.7
2018-May-17 20:00N 33°08' E 033°38'611.6
2018-May-17 19:30N 33°11' E 033°32'611.6
2018-May-17 19:00N 33°13' E 033°26'611.5
2018-May-17 18:30N 33°15' E 033°19'611.6
2018-May-17 18:00N 33°17' E 033°13'611.6
2018-May-17 17:30N 33°19' E 033°06'611.6
2018-May-17 17:00N 33°21' E 032°60'611.5
2018-May-17 16:30N 33°22' E 032°53'611.5
2018-May-17 16:00N 33°24' E 032°47'611.4
2018-May-17 15:30N 33°26' E 032°40'611.4
2018-May-17 15:00N 33°28' E 032°34'1911.5
2018-May-17 13:23N 33°34' E 032°13'411.6
2018-May-17 13:00N 33°36' E 032°08'612.3
2018-May-17 12:30N 33°38' E 032°01'816.0
2018-May-17 12:01N 33°41' E 031°52'816.0
2018-May-17 11:30N 33°44' E 031°43'816.2
2018-May-17 11:00N 33°46' E 031°34'816.1
2018-May-17 10:31N 33°49' E 031°24'  
Track history (hours):
 
Tides and Currents Weather Stations Pressure Air Temp Water Temp Dewpoint Dewpoint Depression Visibility Wind Speed Wind Dir Waves Ship Positions

Golden Iris

Last reported at 2018-May-27 10:14 UTC. Time now 2018-May-28 07:38 UTC.
Position N 32°55' E 034°48'.

Length 164 m; draft 6 m.

Type: Passenger vessel. MMSI: 371771000.

Date/timePositionNaut miles runAvg speedWind from/ knotsBaromVisibWave heightAir tempDewpointWater temp
2018-May-27 10:14N 32°55' E 034°48'415.6
2018-May-27 10:00N 32°54' E 034°52'814.8
2018-May-27 09:30N 32°51' E 035°00'1 0.1
2018-May-27 02:33N 32°50' E 035°01'1 4.9
2018-May-27 02:17N 32°51' E 034°60'2 7.8
2018-May-27 01:59N 32°52' E 034°57'4 7.8
2018-May-27 01:25N 32°54' E 034°52'4 9.8
2018-May-27 01:00N 32°54' E 034°47'134 3.9
2018-May-25 14:26N 34°56' E 033°38'0 0.0
2018-May-25 13:59N 34°56' E 033°38'0 0.0
2018-May-25 13:29N 34°56' E 033°38'0 0.0
2018-May-25 12:56N 34°56' E 033°38'0 0.0
2018-May-25 12:26N 34°56' E 033°38'0 0.0
2018-May-25 11:59N 34°56' E 033°38'0 0.0
2018-May-25 11:23N 34°56' E 033°38'0 0.0
2018-May-25 10:56N 34°56' E 033°38'0 0.0
2018-May-25 10:29N 34°56' E 033°38'72 8.1
2018-May-25 01:38N 33°44' E 033°47'1 9.7
2018-May-25 01:30N 33°43' E 033°47'5 9.5
2018-May-25 01:00N 33°38' E 033°46'5 9.5
2018-May-25 00:30N 33°33' E 033°46'5 9.5
2018-May-24 23:57N 33°28' E 033°45'4 9.6
2018-May-24 23:30N 33°24' E 033°44'5 9.5
2018-May-24 23:00N 33°19' E 033°44'5 9.3
2018-May-24 22:30N 33°15' E 033°43'5 9.3
2018-May-24 22:00N 33°10' E 033°42'4 8.2
2018-May-24 21:30N 33°07' E 033°46'5 9.7
2018-May-24 21:00N 33°06' E 033°51'5 9.8
2018-May-24 20:30N 33°05' E 033°57'6 9.7
2018-May-24 19:54N 33°03' E 034°04'5 9.6
2018-May-24 19:22N 33°02' E 034°10'3 9.5
2018-May-24 19:00N 33°02' E 034°14'5 9.4
2018-May-24 18:30N 33°01' E 034°19'5 9.6
2018-May-24 18:00N 32°60' E 034°25'5 9.6
2018-May-24 17:30N 32°59' E 034°31'5 9.7
2018-May-24 17:00N 32°58' E 034°36'5 9.5
2018-May-24 16:29N 32°58' E 034°42'4 9.2
2018-May-24 16:00N 32°57' E 034°47'4 9.0
2018-May-24 15:30N 32°55' E 034°52'4 9.0
2018-May-24 15:00N 32°53' E 034°57'4 0.4
2018-May-24 03:59N 32°51' E 035°01'3 5.8
2018-May-24 03:30N 32°52' E 034°58'610.8
2018-May-24 02:59N 32°54' E 034°52'510.7
2018-May-24 02:30N 32°55' E 034°46'17 0.5
2018-May-22 13:49N 32°57' E 034°26'3 9.1
2018-May-22 13:29N 32°56' E 034°29'4 9.1
2018-May-22 13:00N 32°55' E 034°34'5 9.2
2018-May-22 12:30N 32°54' E 034°40'5 9.3
2018-May-22 12:00N 32°53' E 034°45'5 9.3
2018-May-22 11:30N 32°53' E 034°51'5 9.1
2018-May-22 11:00N 32°53' E 034°56'5 0.5
2018-May-22 01:55N 32°51' E 035°01'4 9.2
2018-May-22 01:30N 32°52' E 034°57'815.7
2018-May-22 01:00N 32°53' E 034°48'714.7
2018-May-22 00:30N 32°53' E 034°39'815.9
2018-May-22 00:00N 32°55' E 034°30'816.1
2018-May-21 23:30N 32°56' E 034°20'816.3
2018-May-21 23:00N 32°58' E 034°11'816.1
2018-May-21 22:30N 33°00' E 034°01'816.1
2018-May-21 22:00N 33°04' E 033°53'815.7
2018-May-21 21:30N 33°09' E 033°46'612.4
2018-May-21 21:00N 33°13' E 033°40'1312.6
2018-May-21 19:58N 33°21' E 033°28'1212.7
2018-May-21 19:01N 33°29' E 033°16'012.7
2018-May-21 18:59N 33°29' E 033°16'613.0
2018-May-21 18:30N 33°33' E 033°10'713.2
2018-May-21 18:00N 33°37' E 033°04'  
2018-May-18 20:55N 33°47' E 033°51'2310.1
2018-May-18 18:37N 33°24' E 033°54'1 9.7
2018-May-18 18:30N 33°23' E 033°54'13 9.6
2018-May-18 17:06N 33°10' E 033°56'1 9.6
2018-May-18 17:00N 33°09' E 033°56'34 8.6
2018-May-18 13:00N 32°56' E 034°34'4 9.2
2018-May-18 12:30N 32°55' E 034°39'6 9.1
2018-May-18 11:52N 32°54' E 034°46'3 9.5
2018-May-18 11:30N 32°53' E 034°50'9 1.0
2018-May-18 02:21N 32°51' E 035°00'4 8.5
2018-May-18 01:56N 32°52' E 034°56'510.5
2018-May-18 01:29N 32°53' E 034°51'510.9
2018-May-18 01:00N 32°55' E 034°45'510.8
2018-May-18 00:30N 32°56' E 034°38'511.0
2018-May-18 00:00N 32°56' E 034°32'611.2
2018-May-17 23:30N 32°57' E 034°25'611.5
2018-May-17 23:01N 32°59' E 034°19'611.6
2018-May-17 22:30N 32°60' E 034°12'611.7
2018-May-17 22:00N 33°01' E 034°05'611.7
2018-May-17 21:30N 33°02' E 033°58'611.8
2018-May-17 21:00N 33°04' E 033°51'611.7
2018-May-17 20:30N 33°06' E 033°45'611.7
2018-May-17 20:00N 33°08' E 033°38'611.6
2018-May-17 19:30N 33°11' E 033°32'611.6
2018-May-17 19:00N 33°13' E 033°26'611.5
2018-May-17 18:30N 33°15' E 033°19'611.6
2018-May-17 18:00N 33°17' E 033°13'611.6
2018-May-17 17:30N 33°19' E 033°06'611.6
2018-May-17 17:00N 33°21' E 032°60'611.5
2018-May-17 16:30N 33°22' E 032°53'611.5
2018-May-17 16:00N 33°24' E 032°47'611.4
2018-May-17 15:30N 33°26' E 032°40'611.4
2018-May-17 15:00N 33°28' E 032°34'1911.5
2018-May-17 13:23N 33°34' E 032°13'411.6
2018-May-17 13:00N 33°36' E 032°08'612.3
2018-May-17 12:30N 33°38' E 032°01'816.0
2018-May-17 12:01N 33°41' E 031°52'816.0
2018-May-17 11:30N 33°44' E 031°43'816.2
2018-May-17 11:00N 33°46' E 031°34'816.1
2018-May-17 10:31N 33°49' E 031°24'  

Dump ship's entire track history